createdAt,value
2023-11-21T00:02:28.544Z,39.42
2023-11-21T00:05:31.391Z,36.10
2023-11-21T00:08:34.090Z,34.97
2023-11-21T00:11:36.784Z,39.20
2023-11-21T00:14:42.170Z,39.60
2023-11-21T00:17:44.955Z,49.80
2023-11-21T00:20:47.678Z,48.65
2023-11-21T00:23:50.320Z,48.10
2023-11-21T00:26:54.257Z,48.53
2023-11-21T00:29:57.014Z,46.43
2023-11-21T00:32:59.895Z,44.20
2023-11-21T00:36:02.561Z,41.90
2023-11-21T00:39:07.152Z,42.15
2023-11-21T00:42:11.734Z,40.27
2023-11-21T00:45:14.476Z,35.17
2023-11-21T00:48:17.266Z,32.20
2023-11-21T00:51:19.925Z,30.73
2023-11-21T00:54:22.601Z,32.72
2023-11-21T00:57:25.363Z,28.67
2023-11-21T01:00:28.135Z,30.97
2023-11-21T01:03:32.442Z,29.77
2023-11-21T01:06:35.330Z,33.63
2023-11-21T01:09:38.085Z,33.28
2023-11-21T01:12:41.113Z,33.83
2023-11-21T01:15:43.865Z,37.37
2023-11-21T01:18:46.565Z,29.13
2023-11-21T01:21:49.234Z,30.70
2023-11-21T01:24:52.022Z,30.27
2023-11-21T01:27:54.784Z,31.23
2023-11-21T01:30:57.851Z,38.37
2023-11-21T01:34:00.586Z,36.00
2023-11-21T01:37:06.413Z,42.60
2023-11-21T01:40:12.548Z,45.13
2023-11-21T01:43:15.371Z,43.67
2023-11-21T01:46:18.084Z,48.77
2023-11-21T01:49:21.739Z,40.05
2023-11-21T01:52:25.884Z,39.17
2023-11-21T01:55:31.545Z,43.67
2023-11-21T01:58:34.633Z,38.13
2023-11-21T02:01:37.329Z,36.37
2023-11-21T02:04:40.438Z,40.83
2023-11-21T02:07:46.498Z,43.78
2023-11-21T02:10:49.449Z,45.33
2023-11-21T02:13:55.333Z,44.03
2023-11-21T02:16:58.850Z,43.73
2023-11-21T02:20:01.549Z,50.55
2023-11-21T02:23:04.362Z,50.35
2023-11-21T02:26:07.607Z,57.75
2023-11-21T02:29:13.186Z,51.87
2023-11-21T02:32:18.248Z,48.73
2023-11-21T02:35:22.391Z,52.80
2023-11-21T02:38:25.021Z,57.78
2023-11-21T02:41:27.655Z,54.22
2023-11-21T02:44:30.470Z,54.03
2023-11-21T02:47:33.335Z,51.33
2023-11-21T02:50:36.583Z,48.80
2023-11-21T02:53:39.970Z,53.85
2023-11-21T02:56:42.811Z,50.17
2023-11-21T02:59:46.124Z,51.97
2023-11-21T03:02:49.180Z,54.70
2023-11-21T03:05:52.067Z,49.90
2023-11-21T03:08:54.794Z,57.85
2023-11-21T03:11:57.547Z,54.83
2023-11-21T03:15:00.803Z,54.70
2023-11-21T03:18:04.153Z,54.93
2023-11-21T03:21:09.996Z,52.33
2023-11-21T03:24:12.850Z,54.28
2023-11-21T03:27:15.481Z,53.20
2023-11-21T03:30:18.274Z,50.63
2023-11-21T03:33:21.413Z,53.97
2023-11-21T03:36:26.435Z,54.85
2023-11-21T03:39:30.757Z,52.60
2023-11-21T03:42:33.510Z,53.53
2023-11-21T03:45:36.291Z,57.00
2023-11-21T03:48:39.334Z,52.17
2023-11-21T03:51:42.017Z,55.78
2023-11-21T03:54:44.812Z,55.55
2023-11-21T03:57:47.577Z,53.20
2023-11-21T04:00:50.572Z,62.70
2023-11-21T04:03:53.650Z,57.60
2023-11-21T04:06:56.399Z,55.45
2023-11-21T04:09:59.049Z,56.60
2023-11-21T04:13:01.685Z,62.58
2023-11-21T04:16:04.546Z,56.67
2023-11-21T04:19:07.235Z,58.67
2023-11-21T04:22:09.881Z,62.42
2023-11-21T04:25:14.532Z,62.78
2023-11-21T04:28:17.241Z,66.28
2023-11-21T04:31:20.077Z,62.97
2023-11-21T04:34:22.943Z,71.40
2023-11-21T04:37:25.796Z,70.50
2023-11-21T04:40:28.588Z,69.03
2023-11-21T04:43:31.410Z,64.47
2023-11-21T04:46:34.288Z,64.10
2023-11-21T04:49:37.335Z,63.53
2023-11-21T04:52:40.045Z,58.97
2023-11-21T04:55:43.006Z,55.85
2023-11-21T04:58:45.724Z,55.08
2023-11-21T05:01:51.232Z,58.67
2023-11-21T05:04:54.616Z,57.63
2023-11-21T05:07:57.468Z,52.53
2023-11-21T05:11:00.244Z,54.25
2023-11-21T05:14:03.079Z,55.65
2023-11-21T05:17:05.881Z,51.63
2023-11-21T05:20:11.079Z,51.53
2023-11-21T05:23:13.968Z,51.88
2023-11-21T05:26:16.640Z,49.70
2023-11-21T05:29:19.450Z,48.78
2023-11-21T05:32:22.185Z,44.97
2023-11-21T05:35:24.909Z,42.90
2023-11-21T05:38:27.609Z,44.58
2023-11-21T05:41:30.289Z,45.28
2023-11-21T05:44:33.138Z,40.88
2023-11-21T05:47:37.187Z,42.27
2023-11-21T05:50:39.983Z,42.50
2023-11-21T05:53:42.733Z,38.58
2023-11-21T05:56:45.635Z,31.00
2023-11-21T05:59:48.347Z,35.42
2023-11-21T06:02:58.630Z,26.43
2023-11-21T06:06:01.437Z,31.10
2023-11-21T06:09:04.542Z,29.95
2023-11-21T06:12:07.662Z,29.25
2023-11-21T06:15:14.975Z,31.33
2023-11-21T06:18:20.580Z,30.07
2023-11-21T06:21:23.455Z,30.10
2023-11-21T06:24:26.144Z,29.08
2023-11-21T06:27:28.840Z,33.22
2023-11-21T06:30:31.527Z,30.02
2023-11-21T06:33:34.292Z,34.43
2023-11-21T06:36:37.468Z,35.33
2023-11-21T06:39:40.076Z,38.20
2023-11-21T06:42:42.890Z,35.85
2023-11-21T06:45:45.679Z,29.05
2023-11-21T06:48:49.902Z,21.30
2023-11-21T06:51:52.939Z,17.13
2023-11-21T06:54:56.001Z,17.33
2023-11-21T06:57:59.356Z,13.48
2023-11-21T07:01:02.094Z,11.68
2023-11-21T07:04:08.506Z,16.83
2023-11-21T07:07:11.269Z,8.57
2023-11-21T07:10:14.126Z,12.05
2023-11-21T07:13:16.850Z,12.30
2023-11-21T07:16:23.835Z,8.70
2023-11-21T07:19:30.705Z,8.13
2023-11-21T07:22:33.595Z,10.57
2023-11-21T07:25:39.224Z,7.72
2023-11-21T07:28:42.038Z,6.80
2023-11-21T07:31:44.927Z,8.18
2023-11-21T07:34:47.816Z,4.37
2023-11-21T07:37:51.069Z,6.50
2023-11-21T07:40:53.999Z,11.35
2023-11-21T07:43:57.311Z,6.05
2023-11-21T07:47:00.178Z,5.90
2023-11-21T07:50:05.201Z,10.07
2023-11-21T07:53:08.206Z,5.40
2023-11-21T07:56:11.276Z,4.65
2023-11-21T07:59:15.610Z,4.72
2023-11-21T08:02:19.323Z,2.17
2023-11-21T08:05:28.138Z,4.97
2023-11-21T08:08:35.371Z,4.97
2023-11-21T08:11:40.196Z,5.80
2023-11-21T08:14:43.022Z,7.40
2023-11-21T08:17:45.772Z,4.95
2023-11-21T08:20:49.007Z,4.00
2023-11-21T08:23:55.414Z,2.20
2023-11-21T08:26:59.693Z,3.80
2023-11-21T08:30:04.362Z,2.55
2023-11-21T08:33:07.123Z,2.60
2023-11-21T08:36:10.780Z,2.77
2023-11-21T08:39:14.655Z,7.27
2023-11-21T08:42:17.411Z,7.75
2023-11-21T08:45:21.047Z,7.22
2023-11-21T08:48:23.870Z,10.32
2023-11-21T08:51:26.836Z,5.90
2023-11-21T08:54:29.739Z,7.00
2023-11-21T08:57:32.525Z,8.05
2023-11-21T09:00:35.506Z,10.30
2023-11-21T09:03:38.770Z,11.68
2023-11-21T09:06:41.552Z,8.90
2023-11-21T09:09:44.293Z,9.23
2023-11-21T09:12:47.080Z,11.93
2023-11-21T09:15:55.989Z,10.20
2023-11-21T09:19:01.795Z,5.22
2023-11-21T09:22:09.231Z,4.97
2023-11-21T09:25:12.153Z,3.43
2023-11-21T09:28:14.950Z,2.92
2023-11-21T09:31:18.149Z,3.50
2023-11-21T09:34:21.656Z,3.45
2023-11-21T09:37:24.453Z,5.13
2023-11-21T09:40:28.045Z,2.00
2023-11-21T09:43:33.431Z,4.90
2023-11-21T09:46:40.776Z,4.47
2023-11-21T09:49:50.682Z,2.38
2023-11-21T09:53:31.225Z,4.03
2023-11-21T09:56:34.126Z,3.30
2023-11-21T09:59:39.436Z,2.65
2023-11-21T10:02:42.335Z,6.28
2023-11-21T10:05:47.501Z,7.90
2023-11-21T10:08:55.864Z,6.50
2023-11-21T10:12:01.719Z,6.77
2023-11-21T10:15:08.883Z,5.85
2023-11-21T10:18:13.116Z,4.03
2023-11-21T10:21:18.926Z,3.60
2023-11-21T10:24:22.252Z,1.88
2023-11-21T10:27:28.884Z,3.23
2023-11-21T10:30:39.154Z,4.13
2023-11-21T10:33:42.021Z,6.40
2023-11-21T10:36:48.038Z,3.45
2023-11-21T10:39:51.377Z,2.83
2023-11-21T10:42:54.741Z,5.63
2023-11-21T10:46:02.469Z,8.60
2023-11-21T10:49:05.617Z,8.38
2023-11-21T10:52:08.429Z,7.25
2023-11-21T10:55:22.729Z,4.57
2023-11-21T10:58:25.930Z,6.27
2023-11-21T11:01:31.542Z,4.60
2023-11-21T11:04:39.605Z,4.22
2023-11-21T11:07:44.856Z,5.30
2023-11-21T11:10:53.412Z,4.77
2023-11-21T11:13:58.082Z,5.77
2023-11-21T11:17:03.101Z,6.38
2023-11-21T11:20:10.948Z,7.32
2023-11-21T11:23:34.799Z,4.55
2023-11-21T11:27:18.257Z,5.13
2023-11-21T11:30:23.789Z,5.43
2023-11-21T11:33:38.387Z,4.70
2023-11-21T11:37:04.086Z,4.90
2023-11-21T11:40:08.135Z,5.30
2023-11-21T11:43:11.561Z,5.87
2023-11-21T11:46:17.378Z,6.57
2023-11-21T11:49:29.172Z,7.80
2023-11-21T11:52:46.320Z,5.63
2023-11-21T11:56:19.241Z,4.22
2023-11-21T11:59:22.064Z,2.80
2023-11-21T12:02:25.552Z,5.37
2023-11-21T12:05:36.963Z,5.43
2023-11-21T12:08:39.629Z,3.83
2023-11-21T12:11:42.735Z,3.83
2023-11-21T12:14:46.721Z,2.90
2023-11-21T12:17:50.683Z,2.93
2023-11-21T12:20:53.546Z,3.65
2023-11-21T12:23:56.304Z,4.10
2023-11-21T12:26:59.142Z,31.23
2023-11-21T12:30:13.733Z,24.50
2023-11-21T12:33:27.104Z,20.63
2023-11-21T12:36:37.374Z,12.55
2023-11-21T12:39:40.184Z,8.02
2023-11-21T12:42:44.211Z,4.50
2023-11-21T12:45:47.063Z,1.80
2023-11-21T12:48:50.696Z,2.33
2023-11-21T12:51:55.206Z,2.78
2023-11-21T12:54:57.957Z,4.20
2023-11-21T12:58:14.403Z,3.88
2023-11-21T13:01:20.114Z,2.70
2023-11-21T13:04:32.213Z,3.67
2023-11-21T13:07:48.259Z,3.40
2023-11-21T13:10:56.653Z,3.58
2023-11-21T13:14:43.384Z,2.28
2023-11-21T13:21:33.363Z,1.27
2023-11-21T13:24:38.370Z,3.08
2023-11-21T13:27:41.807Z,1.67
2023-11-21T13:30:45.917Z,4.70
2023-11-21T13:33:57.774Z,6.90
2023-11-21T13:37:02.276Z,3.50
2023-11-21T13:40:15.558Z,2.20
2023-11-21T13:43:22.991Z,5.18
2023-11-21T13:46:26.320Z,6.50
2023-11-21T13:49:33.114Z,4.97
2023-11-21T13:52:37.315Z,2.90
2023-11-21T13:55:40.967Z,1.77
2023-11-21T13:59:06.811Z,1.50
2023-11-21T14:02:29.360Z,1.50
2023-11-21T14:05:32.851Z,2.17
2023-11-21T14:08:36.021Z,1.73
2023-11-21T14:11:43.590Z,3.60
2023-11-21T14:14:50.945Z,1.77
2023-11-21T14:17:53.653Z,3.00
2023-11-21T14:20:56.441Z,2.57
2023-11-21T14:23:59.336Z,3.27
2023-11-21T14:27:02.034Z,3.05
2023-11-21T14:30:06.539Z,5.40
2023-11-21T14:33:12.742Z,4.93
2023-11-21T14:36:18.434Z,2.97
2023-11-21T14:39:30.483Z,3.60
2023-11-21T14:42:34.976Z,3.13
2023-11-21T14:45:38.042Z,5.28
2023-11-21T14:48:43.910Z,4.88
2023-11-21T14:52:03.668Z,4.23
2023-11-21T14:55:26.330Z,5.07
2023-11-21T14:58:29.055Z,8.02
2023-11-21T15:01:52.175Z,8.75
2023-11-21T15:05:03.587Z,4.93
2023-11-21T15:08:23.067Z,6.40
2023-11-21T15:11:31.558Z,6.97
2023-11-21T15:14:37.152Z,5.57
2023-11-21T15:17:41.083Z,7.85
2023-11-21T15:20:44.721Z,5.95
2023-11-21T15:23:47.441Z,9.35
2023-11-21T15:26:50.950Z,9.03
2023-11-21T15:29:54.925Z,13.65
2023-11-21T15:32:57.672Z,12.63
2023-11-21T15:36:00.382Z,15.77
2023-11-21T15:39:03.217Z,12.93
2023-11-21T15:42:09.167Z,14.03
2023-11-21T15:45:12.490Z,11.38
2023-11-21T15:48:17.624Z,7.55
2023-11-21T15:51:20.395Z,6.70
2023-11-21T15:54:25.988Z,5.30
2023-11-21T15:57:28.796Z,5.03
2023-11-21T16:00:31.690Z,4.38
2023-11-21T16:03:34.951Z,4.75
2023-11-21T16:06:40.591Z,6.47
2023-11-21T16:09:44.405Z,6.43
2023-11-21T16:12:47.729Z,8.57
2023-11-21T16:15:55.367Z,9.30
2023-11-21T16:18:58.485Z,6.25
2023-11-21T16:22:01.455Z,8.18
2023-11-21T16:25:12.012Z,10.33
2023-11-21T16:28:15.219Z,12.57
2023-11-21T16:31:26.814Z,14.63
2023-11-21T16:34:29.672Z,16.08
2023-11-21T16:37:35.192Z,13.48
2023-11-21T16:40:38.321Z,14.17
2023-11-21T16:43:41.012Z,12.37
2023-11-21T16:47:07.681Z,16.27
2023-11-21T16:50:10.568Z,15.32
2023-11-21T16:53:13.571Z,13.88
2023-11-21T16:56:16.330Z,15.03
2023-11-21T16:59:19.794Z,18.83
2023-11-21T17:02:22.743Z,15.18
2023-11-21T17:05:26.592Z,10.20
2023-11-21T17:08:30.807Z,7.78
2023-11-21T17:11:33.629Z,7.23
2023-11-21T17:14:36.332Z,6.07
2023-11-21T17:17:40.425Z,5.50
2023-11-21T17:20:44.665Z,5.85
2023-11-21T17:23:47.494Z,6.65
2023-11-21T17:26:50.254Z,7.97
2023-11-21T17:29:55.031Z,6.77
2023-11-21T17:32:58.188Z,4.53
2023-11-21T17:36:00.929Z,5.18
2023-11-21T17:39:09.337Z,6.68
2023-11-21T17:42:12.028Z,6.20
2023-11-21T17:45:15.003Z,10.80
2023-11-21T17:48:18.111Z,8.32
2023-11-21T17:51:21.233Z,10.25
2023-11-21T17:54:24.556Z,6.13
2023-11-21T17:57:27.271Z,10.27
2023-11-21T18:00:30.140Z,8.63
2023-11-21T18:03:32.888Z,8.02
2023-11-21T18:06:35.682Z,7.63
2023-11-21T18:09:40.656Z,8.77
2023-11-21T18:12:44.087Z,7.93
2023-11-21T18:15:46.995Z,7.37
2023-11-21T18:18:51.494Z,5.75
2023-11-21T18:21:54.218Z,5.75
2023-11-21T18:24:58.297Z,6.45
2023-11-21T18:28:01.216Z,5.80
2023-11-21T18:31:08.309Z,5.63
2023-11-21T18:34:12.028Z,5.53
2023-11-21T18:37:14.836Z,4.88
2023-11-21T18:40:17.686Z,6.47
2023-11-21T18:43:20.372Z,5.05
2023-11-21T18:46:23.388Z,6.40
2023-11-21T18:49:27.049Z,5.50
2023-11-21T18:52:30.289Z,10.10
2023-11-21T18:55:33.053Z,7.63
2023-11-21T18:58:37.526Z,7.60
2023-11-21T19:01:41.341Z,7.83
2023-11-21T19:04:44.873Z,7.57
2023-11-21T19:07:47.836Z,12.68
2023-11-21T19:10:51.982Z,8.43
2023-11-21T19:13:55.342Z,10.43
2023-11-21T19:16:58.337Z,11.17
2023-11-21T19:20:02.007Z,10.98
2023-11-21T19:23:04.768Z,11.15
2023-11-21T19:26:07.872Z,15.02
2023-11-21T19:29:10.733Z,13.77
2023-11-21T19:32:14.005Z,13.63
2023-11-21T19:35:17.835Z,13.50
2023-11-21T19:38:21.015Z,18.48
2023-11-21T19:41:24.703Z,13.32
2023-11-21T19:44:29.226Z,15.00
2023-11-21T19:47:34.921Z,15.53
2023-11-21T19:50:38.294Z,14.00
2023-11-21T19:53:41.064Z,14.23
2023-11-21T19:56:44.807Z,15.32
2023-11-21T19:59:49.261Z,14.77
2023-11-21T20:02:53.447Z,16.97
2023-11-21T20:05:56.213Z,17.48
2023-11-21T20:09:00.978Z,14.95
2023-11-21T20:12:04.089Z,12.73
2023-11-21T20:15:07.667Z,15.90
2023-11-21T20:18:14.017Z,9.47
2023-11-21T20:21:21.408Z,12.15
2023-11-21T20:24:24.742Z,10.30
2023-11-21T20:27:27.830Z,13.13
2023-11-21T20:30:33.320Z,11.93
2023-11-21T20:33:36.177Z,12.00
2023-11-21T20:36:39.080Z,12.10
2023-11-21T20:39:41.923Z,11.35
2023-11-21T20:42:48.104Z,10.60
2023-11-21T20:45:50.882Z,12.73
2023-11-21T20:48:55.462Z,16.47
2023-11-21T20:51:58.762Z,11.75
2023-11-21T20:55:01.856Z,12.35
2023-11-21T20:58:04.925Z,12.27
2023-11-21T21:01:08.162Z,10.87
2023-11-21T21:04:11.735Z,13.67
2023-11-21T21:07:14.978Z,13.30
2023-11-21T21:10:17.672Z,14.77
2023-11-21T21:13:20.623Z,12.25
2023-11-21T21:16:26.942Z,11.90
2023-11-21T21:19:31.304Z,13.27
2023-11-21T21:22:34.469Z,15.48
2023-11-21T21:25:37.114Z,13.75
2023-11-21T21:28:39.817Z,13.45
2023-11-21T21:31:42.878Z,13.13
2023-11-21T21:34:45.656Z,11.83
2023-11-21T21:37:48.350Z,13.20
2023-11-21T21:40:53.243Z,14.50
2023-11-21T21:43:56.864Z,14.93
2023-11-21T21:46:59.581Z,15.63
2023-11-21T21:50:02.325Z,12.70
2023-11-21T21:53:06.792Z,15.05
2023-11-21T21:56:09.490Z,14.82
2023-11-21T21:59:13.370Z,14.88
2023-11-21T22:02:16.145Z,17.97
2023-11-21T22:05:19.072Z,16.37
2023-11-21T22:08:21.875Z,15.27
2023-11-21T22:11:24.724Z,15.85
2023-11-21T22:14:27.455Z,18.17
2023-11-21T22:17:30.313Z,10.40
2023-11-21T22:20:33.228Z,20.13
2023-11-21T22:23:37.683Z,21.55
2023-11-21T22:26:40.652Z,15.30
2023-11-21T22:29:43.560Z,20.67
2023-11-21T22:32:46.676Z,17.80
2023-11-21T22:35:49.899Z,19.93
2023-11-21T22:38:52.590Z,17.30
2023-11-21T22:41:56.178Z,16.92
2023-11-21T22:44:58.777Z,20.17
2023-11-21T22:48:01.548Z,15.97
2023-11-21T22:51:04.868Z,19.00
2023-11-21T22:54:08.359Z,19.92
2023-11-21T22:57:11.211Z,17.50
2023-11-21T23:00:15.808Z,17.38
2023-11-21T23:03:18.815Z,18.23
2023-11-21T23:06:22.462Z,17.47
2023-11-21T23:09:25.333Z,16.65
2023-11-21T23:12:28.225Z,20.13
2023-11-21T23:15:30.932Z,19.00
2023-11-21T23:18:33.924Z,22.20
2023-11-21T23:21:36.575Z,26.17
2023-11-21T23:24:39.234Z,18.17
2023-11-21T23:27:41.919Z,21.20
2023-11-21T23:30:45.079Z,20.10
2023-11-21T23:33:47.822Z,20.00
2023-11-21T23:36:50.557Z,21.80
2023-11-21T23:39:53.260Z,19.15
2023-11-21T23:42:55.864Z,16.92
2023-11-21T23:45:58.521Z,19.23
2023-11-21T23:49:02.792Z,23.63
2023-11-21T23:52:05.944Z,18.97
2023-11-21T23:55:09.366Z,18.75
2023-11-21T23:58:12.587Z,22.15
